Time;durP1;ratioP1;P1;durP2;ratioP2;P2;SDS_P1;SDS_P2;PMS_P1;PMS_P2;Temp;Humidity;BMP_temperature;BMP_pressure;BME280_temperature;BME280_humidity;BME280_pressure;Samples;Min_cycle;Max_cycle;Signal;HPM_P1;HPM_P2
2022/01/31 00:01:10;;;;;;;6.28;1.90;;;7.90;99.90;;;;;;5056196;28;20164;-60
2022/01/31 00:03:36;;;;;;;3.10;1.30;;;7.90;99.90;;;;;;5040430;28;20080;-60
2022/01/31 00:06:03;;;;;;;5.00;1.70;;;7.90;99.90;;;;;;5059636;28;20352;-60
2022/01/31 00:08:30;;;;;;;3.95;1.15;;;7.90;99.90;;;;;;5050535;28;20132;-59
2022/01/31 00:10:57;;;;;;;5.50;1.40;;;7.80;99.90;;;;;;5041743;28;20073;-59
2022/01/31 00:13:46;;;;;;;4.22;1.52;;;7.90;99.90;;;;;;5038125;28;20069;-60
2022/01/31 00:16:23;;;;;;;3.50;1.23;;;7.90;99.90;;;;;;5049082;28;20136;-60
2022/01/31 00:18:49;;;;;;;4.45;1.23;;;7.90;99.90;;;;;;5053162;28;20136;-60
2022/01/31 00:21:16;;;;;;;4.53;1.30;;;7.80;99.90;;;;;;5050164;28;20044;-60
2022/01/31 00:23:43;;;;;;;6.18;1.60;;;7.80;99.90;;;;;;5048322;28;20084;-60
2022/01/31 00:26:09;;;;;;;4.90;2.00;;;7.90;99.90;;;;;;5052513;28;20049;-60
2022/01/31 00:28:37;;;;;;;6.03;1.60;;;7.80;99.90;;;;;;5049285;28;20103;-60
2022/01/31 00:31:03;;;;;;;2.80;1.10;;;7.90;99.90;;;;;;5050552;28;20194;-60
2022/01/31 00:33:30;;;;;;;5.90;1.70;;;7.90;99.90;;;;;;5040899;28;20507;-59
2022/01/31 00:35:57;;;;;;;3.92;1.30;;;7.90;99.90;;;;;;5056931;28;20041;-59
2022/01/31 00:38:24;;;;;;;2.90;1.20;;;8.00;99.90;;;;;;5060756;28;20143;-60
2022/01/31 00:40:51;;;;;;;4.05;1.67;;;8.00;99.90;;;;;;5056590;28;20124;-59
2022/01/31 00:43:20;;;;;;;2.28;1.17;;;8.00;99.90;;;;;;5059599;28;20108;-60
2022/01/31 00:45:58;;;;;;;2.95;1.27;;;8.00;99.90;;;;;;5059950;28;20079;-59
2022/01/31 00:48:27;;;;;;;3.65;1.63;;;8.00;99.90;;;;;;5059444;28;20131;-60
2022/01/31 00:50:53;;;;;;;2.33;1.13;;;8.00;99.90;;;;;;5056779;28;20118;-60
2022/01/31 00:53:20;;;;;;;3.83;1.33;;;8.00;99.90;;;;;;5054104;28;20084;-60
2022/01/31 00:55:47;;;;;;;3.20;1.05;;;8.10;99.90;;;;;;5055721;28;20140;-60
2022/01/31 00:58:14;;;;;;;2.58;0.90;;;8.10;99.90;;;;;;5059288;28;20131;-59
2022/01/31 01:00:40;;;;;;;3.90;1.17;;;8.10;99.90;;;;;;5056518;28;20080;-59
2022/01/31 01:03:07;;;;;;;2.17;0.85;;;8.10;99.90;;;;;;5043940;28;20053;-60
2022/01/31 01:05:36;;;;;;;4.35;1.13;;;8.10;99.90;;;;;;5056689;28;20053;-60
2022/01/31 01:08:03;;;;;;;3.58;1.05;;;8.00;99.90;;;;;;5064426;28;20059;-60
2022/01/31 01:10:30;;;;;;;2.42;0.88;;;8.00;99.90;;;;;;5051065;28;20524;-60
2022/01/31 01:12:57;;;;;;;2.22;0.93;;;7.90;99.90;;;;;;5058744;28;20695;-59
2022/01/31 01:15:23;;;;;;;2.30;0.90;;;7.90;99.90;;;;;;5048932;28;20053;-60
2022/01/31 01:17:50;;;;;;;3.30;0.80;;;7.90;99.90;;;;;;5045460;28;20168;-60
2022/01/31 01:20:17;;;;;;;2.92;0.90;;;7.90;99.90;;;;;;5063198;28;20075;-59
2022/01/31 01:22:44;;;;;;;1.63;0.80;;;7.90;99.90;;;;;;5050248;28;20107;-60
2022/01/31 01:25:12;;;;;;;3.15;1.05;;;7.90;99.90;;;;;;5061446;28;20079;-59
2022/01/31 01:27:41;;;;;;;4.68;1.00;;;7.90;99.90;;;;;;5063240;28;20114;-60
2022/01/31 01:30:10;;;;;;;7.75;1.30;;;7.90;99.90;;;;;;5057743;28;20083;-59
2022/01/31 01:32:47;;;;;;;4.90;1.77;;;8.00;99.90;;;;;;5060958;28;20110;-60
2022/01/31 01:35:14;;;;;;;3.78;1.13;;;7.90;99.90;;;;;;5057666;28;20127;-60
2022/01/31 01:37:41;;;;;;;3.70;0.90;;;7.90;99.90;;;;;;5064553;28;20161;-60
2022/01/31 01:40:08;;;;;;;2.55;0.88;;;7.90;99.90;;;;;;5064276;28;20045;-60
2022/01/31 01:42:35;;;;;;;4.07;0.93;;;7.90;99.90;;;;;;5055911;28;20109;-59
2022/01/31 01:45:02;;;;;;;3.75;1.02;;;7.80;99.90;;;;;;5049509;28;20056;-60
2022/01/31 01:47:28;;;;;;;4.53;1.38;;;7.80;99.90;;;;;;5062974;28;20106;-60
2022/01/31 01:49:55;;;;;;;5.72;1.30;;;7.70;99.90;;;;;;5057306;28;20550;-60
2022/01/31 01:52:22;;;;;;;4.40;0.90;;;7.80;99.90;;;;;;5056635;28;20041;-60
2022/01/31 01:54:49;;;;;;;2.60;0.80;;;7.70;99.90;;;;;;5038550;28;20045;-60
2022/01/31 01:57:17;;;;;;;2.25;0.93;;;7.60;99.90;;;;;;5055262;28;20213;-60
2022/01/31 01:59:44;;;;;;;4.65;1.20;;;7.60;99.90;;;;;;5045761;28;20186;-59
2022/01/31 02:02:10;;;;;;;4.32;1.30;;;7.60;99.90;;;;;;5050738;28;20227;-58
2022/01/31 02:04:37;;;;;;;3.85;1.23;;;7.60;99.90;;;;;;5060017;28;20135;-59
2022/01/31 02:07:04;;;;;;;5.60;1.40;;;7.60;99.90;;;;;;5062297;28;20068;-58
2022/01/31 02:09:32;;;;;;;2.22;0.75;;;7.60;99.90;;;;;;5062263;28;20227;-58
2022/01/31 02:11:59;;;;;;;4.63;1.17;;;7.60;99.90;;;;;;5035438;28;20135;-59
2022/01/31 02:14:26;;;;;;;3.55;1.10;;;7.60;99.90;;;;;;5060264;28;20464;-59
2022/01/31 02:16:54;;;;;;;5.95;1.60;;;7.60;99.90;;;;;;5062366;28;20087;-59
2022/01/31 02:19:22;;;;;;;3.90;1.10;;;7.60;99.90;;;;;;5058663;28;20495;-59
2022/01/31 02:21:53;;;;;;;7.18;1.58;;;7.60;99.90;;;;;;5056958;28;20103;-58
2022/01/31 02:24:20;;;;;;;3.80;1.08;;;7.60;99.90;;;;;;5047686;28;20654;-58
2022/01/31 02:26:47;;;;;;;3.10;1.10;;;7.60;99.90;;;;;;5063040;28;20104;-58
2022/01/31 02:29:13;;;;;;;4.63;1.13;;;7.60;99.90;;;;;;5059419;28;20136;-58
2022/01/31 02:31:44;;;;;;;3.75;1.25;;;7.60;99.90;;;;;;5053345;28;20095;-58
2022/01/31 02:34:11;;;;;;;3.60;1.27;;;7.50;99.90;;;;;;5049413;28;20524;-59
2022/01/31 02:36:38;;;;;;;5.78;1.63;;;7.50;99.90;;;;;;5064332;28;20049;-58
2022/01/31 02:39:05;;;;;;;5.53;1.55;;;7.50;99.90;;;;;;5062400;28;20137;-58
2022/01/31 02:41:39;;;;;;;5.72;1.20;;;7.40;99.90;;;;;;5064717;28;20078;-58
2022/01/31 02:44:13;;;;;;;5.00;1.35;;;7.40;99.90;;;;;;5060829;28;20076;-58
2022/01/31 02:46:50;;;;;;;4.68;1.95;;;7.40;99.90;;;;;;5064428;28;20478;-58
2022/01/31 02:49:19;;;;;;;2.60;1.27;;;7.30;99.90;;;;;;5056629;28;20056;-57
2022/01/31 02:51:52;;;;;;;5.38;1.60;;;7.30;99.90;;;;;;5044773;28;20049;-58
2022/01/31 02:54:19;;;;;;;3.53;1.00;;;7.30;99.90;;;;;;5051355;28;20094;-57
2022/01/31 02:56:45;;;;;;;6.82;1.50;;;7.20;99.90;;;;;;5063544;28;20080;-59
2022/01/31 02:59:12;;;;;;;6.35;1.98;;;7.20;99.90;;;;;;5055688;28;20084;-58
2022/01/31 03:01:39;;;;;;;3.05;1.23;;;7.20;99.90;;;;;;5052010;28;20072;-59
2022/01/31 03:04:07;;;;;;;5.57;1.73;;;7.20;99.90;;;;;;5054266;28;20064;-59
2022/01/31 03:06:36;;;;;;;5.38;1.65;;;7.10;99.90;;;;;;5063136;28;20132;-58
2022/01/31 03:09:03;;;;;;;6.75;1.30;;;7.10;99.90;;;;;;5061060;28;20094;-59
2022/01/31 03:11:30;;;;;;;4.30;1.25;;;7.20;99.90;;;;;;5052931;28;20131;-59
2022/01/31 03:13:57;;;;;;;6.07;1.15;;;7.10;99.90;;;;;;5042959;28;20087;-58
2022/01/31 03:16:24;;;;;;;6.43;1.77;;;7.10;99.90;;;;;;5043148;28;20469;-58
2022/01/31 03:18:51;;;;;;;3.90;1.50;;;6.90;99.90;;;;;;5049534;28;20305;-58
2022/01/31 03:21:18;;;;;;;7.03;1.60;;;6.70;99.90;;;;;;5049025;28;20082;-58
2022/01/31 03:23:49;;;;;;;4.50;1.25;;;6.50;99.90;;;;;;5063210;28;20092;-58
2022/01/31 03:26:16;;;;;;;6.47;1.73;;;6.40;99.90;;;;;;5062406;28;20112;-58
2022/01/31 03:28:43;;;;;;;5.88;1.45;;;6.40;99.90;;;;;;5061442;28;20080;-58
2022/01/31 03:31:10;;;;;;;3.97;1.30;;;6.40;99.90;;;;;;5062526;28;20060;-58
2022/01/31 03:33:37;;;;;;;8.48;1.42;;;6.40;99.90;;;;;;5058570;28;20431;-58
2022/01/31 03:36:04;;;;;;;5.43;1.20;;;6.40;99.90;;;;;;5046369;28;20044;-59
2022/01/31 03:38:31;;;;;;;5.50;1.38;;;6.40;99.90;;;;;;5062916;28;20094;-58
2022/01/31 03:40:58;;;;;;;5.80;1.50;;;6.40;99.90;;;;;;5061440;28;20079;-58
2022/01/31 03:43:24;;;;;;;4.75;1.38;;;6.40;99.90;;;;;;5060794;28;20248;-58
2022/01/31 03:45:51;;;;;;;3.45;1.17;;;6.50;99.90;;;;;;5062604;28;20112;-59
2022/01/31 03:48:19;;;;;;;5.50;1.15;;;6.60;99.90;;;;;;5057229;28;20049;-58
2022/01/31 03:50:46;;;;;;;6.38;1.90;;;6.70;99.90;;;;;;5043853;28;20138;-58
2022/01/31 03:53:12;;;;;;;6.22;1.30;;;6.80;99.90;;;;;;5053785;28;20071;-59
2022/01/31 03:55:40;;;;;;;5.43;1.73;;;6.90;99.90;;;;;;5046394;28;20161;-59
2022/01/31 03:58:06;;;;;;;2.90;1.13;;;7.00;99.90;;;;;;5049170;28;20147;-59
2022/01/31 04:00:33;;;;;;;5.22;1.50;;;7.00;99.90;;;;;;5062052;28;20198;-59
2022/01/31 04:03:00;;;;;;;4.28;1.30;;;7.00;99.90;;;;;;5060584;28;20080;-58
2022/01/31 04:05:27;;;;;;;6.82;1.42;;;7.00;99.90;;;;;;5056108;28;20056;-59
2022/01/31 04:07:53;;;;;;;4.47;1.23;;;7.00;99.90;;;;;;5058341;28;20086;-58
2022/01/31 04:10:26;;;;;;;3.78;1.20;;;6.90;99.90;;;;;;5062516;28;20053;-58
2022/01/31 04:12:52;;;;;;;3.85;1.52;;;6.90;99.90;;;;;;5061294;28;20133;-59
2022/01/31 04:15:19;;;;;;;5.13;1.33;;;6.90;99.90;;;;;;5061674;28;20638;-59
2022/01/31 04:17:46;;;;;;;5.80;1.50;;;7.00;99.90;;;;;;5059418;28;20155;-59
2022/01/31 04:20:14;;;;;;;5.35;1.65;;;7.00;99.90;;;;;;5047954;28;20614;-59
2022/01/31 04:23:07;;;;;;;4.03;1.30;;;7.00;99.90;;;;;;5050927;28;20053;-59
2022/01/31 04:25:42;;;;;;;4.70;1.35;;;7.00;99.90;;;;;;5062901;28;20052;-59
2022/01/31 04:30:53;;;;;;;4.95;1.50;;;7.10;99.90;;;;;;5062691;28;20072;-58
2022/01/31 04:33:20;;;;;;;2.40;1.15;;;7.10;99.90;;;;;;5062000;28;20044;-59
2022/01/31 04:35:47;;;;;;;3.50;0.95;;;7.10;99.90;;;;;;5048075;28;20080;-59
2022/01/31 04:38:14;;;;;;;3.13;1.08;;;7.20;99.90;;;;;;5056034;28;20139;-58
2022/01/31 04:40:41;;;;;;;5.32;1.80;;;7.20;99.90;;;;;;5067018;28;20045;-59
2022/01/31 04:43:07;;;;;;;5.22;1.30;;;7.20;99.90;;;;;;5050990;28;20052;-59
2022/01/31 04:45:34;;;;;;;5.57;1.42;;;7.20;99.90;;;;;;5065569;28;20163;-58
2022/01/31 04:48:01;;;;;;;4.38;1.65;;;7.30;99.90;;;;;;5065958;28;20238;-59
2022/01/31 04:50:28;;;;;;;4.93;1.50;;;7.30;99.90;;;;;;5065878;28;20084;-59
2022/01/31 04:52:55;;;;;;;3.38;1.63;;;7.30;99.90;;;;;;5061459;28;20401;-58
2022/01/31 04:55:21;;;;;;;5.13;1.60;;;7.30;99.90;;;;;;5059913;28;20632;-59
2022/01/31 04:57:48;;;;;;;2.83;1.20;;;7.30;99.90;;;;;;5067077;28;20188;-58
2022/01/31 05:00:15;;;;;;;3.50;1.20;;;7.30;99.90;;;;;;5065769;28;20147;-58
2022/01/31 05:02:42;;;;;;;4.75;1.70;;;7.30;99.90;;;;;;5052655;28;20471;-59
2022/01/31 05:05:09;;;;;;;8.73;1.67;;;7.30;99.90;;;;;;5051129;28;20048;-58
2022/01/31 05:07:36;;;;;;;6.65;1.67;;;7.30;99.90;;;;;;5047657;28;20084;-59
2022/01/31 05:10:03;;;;;;;4.85;1.42;;;7.40;99.90;;;;;;5061311;28;20540;-59
2022/01/31 05:12:30;;;;;;;7.93;1.80;;;7.40;99.90;;;;;;5061019;28;20041;-59
2022/01/31 05:14:56;;;;;;;5.97;1.40;;;7.40;99.90;;;;;;5061284;28;20681;-59
2022/01/31 05:17:23;;;;;;;5.10;1.80;;;7.40;99.90;;;;;;5065578;28;20106;-58
2022/01/31 05:19:50;;;;;;;7.50;1.83;;;7.50;99.90;;;;;;5057607;28;20128;-59
2022/01/31 05:22:17;;;;;;;4.63;1.42;;;7.60;99.90;;;;;;5052010;28;20524;-59
2022/01/31 05:24:43;;;;;;;6.97;1.75;;;7.50;99.90;;;;;;5057420;28;20056;-59
2022/01/31 05:27:10;;;;;;;5.63;1.98;;;7.50;99.90;;;;;;5058622;28;20190;-59
2022/01/31 05:29:37;;;;;;;5.00;1.25;;;7.50;99.90;;;;;;5056564;28;20095;-59
2022/01/31 05:32:04;;;;;;;4.03;1.30;;;7.40;99.90;;;;;;5056610;28;20053;-59
2022/01/31 05:34:33;;;;;;;3.40;1.10;;;7.10;99.90;;;;;;5065838;28;20691;-59
2022/01/31 05:36:59;;;;;;;4.93;1.20;;;6.90;99.90;;;;;;5059253;28;20123;-59
2022/01/31 05:39:26;;;;;;;4.15;1.30;;;6.70;99.90;;;;;;5060897;28;20113;-59
2022/01/31 05:41:53;;;;;;;7.03;1.52;;;6.60;99.90;;;;;;5063906;28;20067;-59
2022/01/31 05:44:21;;;;;;;2.90;1.05;;;6.60;99.90;;;;;;5063805;28;20131;-59
2022/01/31 05:46:47;;;;;;;3.20;1.00;;;6.60;99.90;;;;;;5072046;28;20052;-59
2022/01/31 05:49:14;;;;;;;4.68;1.15;;;6.60;99.90;;;;;;5072404;28;20432;-60
2022/01/31 05:52:01;;;;;;;5.15;1.55;;;6.60;99.90;;;;;;5061222;28;20587;-60
2022/01/31 05:54:29;;;;;;;5.57;1.45;;;6.60;99.90;;;;;;5063931;28;20196;-59
2022/01/31 05:56:56;;;;;;;6.90;1.70;;;6.60;99.90;;;;;;5067743;28;20048;-60
2022/01/31 05:59:23;;;;;;;4.80;1.67;;;6.60;99.90;;;;;;5064561;28;20483;-59
2022/01/31 06:01:49;;;;;;;5.85;1.65;;;6.70;99.90;;;;;;5051253;28;20143;-60
2022/01/31 06:04:17;;;;;;;4.38;1.38;;;6.70;99.90;;;;;;5059361;28;20495;-60
2022/01/31 06:06:44;;;;;;;5.30;1.50;;;6.60;99.90;;;;;;5068844;28;20080;-59
2022/01/31 06:09:15;;;;;;;6.65;1.45;;;6.60;99.90;;;;;;5073296;28;20079;-60
2022/01/31 06:11:42;;;;;;;2.85;1.17;;;6.70;99.90;;;;;;5055811;28;20405;-60
2022/01/31 06:14:10;;;;;;;5.55;1.50;;;6.70;99.90;;;;;;5056382;28;20197;-60
2022/01/31 06:16:37;;;;;;;5.22;1.08;;;6.60;99.90;;;;;;5056247;28;20581;-60
2022/01/31 06:19:04;;;;;;;5.20;1.65;;;6.60;99.90;;;;;;5063655;28;20136;-60
2022/01/31 06:21:30;;;;;;;4.80;1.33;;;6.60;99.90;;;;;;5054304;28;20126;-60
2022/01/31 06:23:57;;;;;;;7.07;1.52;;;6.70;99.90;;;;;;5053017;28;20149;-59
2022/01/31 06:26:24;;;;;;;6.43;1.70;;;6.70;99.90;;;;;;5074628;28;20565;-60
2022/01/31 06:28:50;;;;;;;6.95;1.67;;;6.70;99.90;;;;;;5063403;28;20083;-60
2022/01/31 06:31:17;;;;;;;5.80;1.65;;;6.60;99.90;;;;;;5059955;28;20152;-60
2022/01/31 06:33:44;;;;;;;9.68;2.67;;;6.60;99.90;;;;;;5050287;28;20121;-60
2022/01/31 06:36:11;;;;;;;6.22;2.00;;;6.60;99.90;;;;;;5055821;28;20433;-60
2022/01/31 06:38:40;;;;;;;7.47;2.30;;;6.60;99.90;;;;;;5068102;28;20090;-59
2022/01/31 06:41:08;;;;;;;7.55;2.13;;;6.60;99.90;;;;;;5057982;28;20075;-58
2022/01/31 06:43:35;;;;;;;7.13;2.08;;;6.60;99.90;;;;;;5056163;28;20055;-59
2022/01/31 06:46:01;;;;;;;7.00;1.98;;;6.50;99.90;;;;;;5069896;28;20130;-60
2022/01/31 06:48:28;;;;;;;10.25;2.53;;;6.50;99.90;;;;;;5054407;28;20511;-60
2022/01/31 06:50:55;;;;;;;8.02;2.15;;;6.50;99.90;;;;;;5051163;28;20114;-60
2022/01/31 06:53:26;;;;;;;9.27;2.53;;;6.50;99.90;;;;;;5047590;28;20183;-59
2022/01/31 06:55:56;;;;;;;6.82;2.22;;;6.50;99.90;;;;;;5055981;28;20789;-59
2022/01/31 06:58:23;;;;;;;9.05;2.38;;;6.50;99.90;;;;;;5047722;28;20136;-58
2022/01/31 07:00:51;;;;;;;6.65;1.90;;;6.50;99.90;;;;;;5053578;28;20164;-60
2022/01/31 07:03:17;;;;;;;8.60;2.22;;;6.50;99.90;;;;;;5056482;28;20053;-63
2022/01/31 07:05:44;;;;;;;9.93;1.98;;;6.60;99.90;;;;;;5057079;28;20063;-59
2022/01/31 07:08:11;;;;;;;11.40;2.13;;;6.50;99.90;;;;;;5043039;28;20091;-59
2022/01/31 07:10:38;;;;;;;9.05;2.38;;;6.60;99.90;;;;;;5052256;28;20131;-60
2022/01/31 07:13:23;;;;;;;8.13;2.47;;;6.60;99.90;;;;;;5052358;28;20040;-59
2022/01/31 07:15:50;;;;;;;10.13;2.58;;;6.60;99.90;;;;;;5057631;28;20087;-59
2022/01/31 07:18:17;;;;;;;9.18;2.20;;;6.60;99.90;;;;;;5061608;28;20135;-61
2022/01/31 07:20:46;;;;;;;7.63;2.33;;;6.50;99.90;;;;;;5041737;28;20159;-60
2022/01/31 07:23:18;;;;;;;6.43;2.13;;;6.50;99.90;;;;;;5045114;28;20239;-59
2022/01/31 07:25:44;;;;;;;3.85;1.55;;;6.50;99.90;;;;;;5058847;28;20649;-60
2022/01/31 07:28:12;;;;;;;7.43;2.08;;;6.50;99.90;;;;;;5058717;28;20118;-60
2022/01/31 07:30:40;;;;;;;10.80;2.30;;;6.40;99.90;;;;;;5055670;28;20105;-59
2022/01/31 07:33:09;;;;;;;7.95;2.40;;;6.40;99.90;;;;;;5056657;28;20056;-59
2022/01/31 07:35:36;;;;;;;7.40;1.92;;;6.30;99.90;;;;;;5056780;28;20361;-59
2022/01/31 07:38:03;;;;;;;11.57;2.50;;;6.30;99.90;;;;;;5058807;28;20524;-58
2022/01/31 07:40:32;;;;;;;9.07;2.78;;;6.30;99.90;;;;;;5041316;28;20062;-60
2022/01/31 07:42:59;;;;;;;7.32;2.20;;;6.30;99.90;;;;;;5058331;28;20048;-59
2022/01/31 07:45:26;;;;;;;7.93;2.67;;;6.30;99.90;;;;;;5056394;28;20147;-60
2022/01/31 07:47:53;;;;;;;8.57;2.30;;;6.30;99.90;;;;;;5057987;28;20067;-59
2022/01/31 07:50:19;;;;;;;11.95;3.15;;;6.20;99.90;;;;;;5057822;28;20127;-60
2022/01/31 07:52:46;;;;;;;7.25;2.63;;;6.20;99.90;;;;;;5058247;28;20122;-59
2022/01/31 07:55:13;;;;;;;8.38;2.33;;;6.20;99.90;;;;;;5057860;28;20485;-59
2022/01/31 07:57:41;;;;;;;6.80;2.58;;;6.20;99.90;;;;;;5058463;28;20049;-59
2022/01/31 08:00:09;;;;;;;6.13;2.00;;;6.20;99.90;;;;;;5056085;28;20059;-59
2022/01/31 08:02:36;;;;;;;6.63;1.90;;;6.10;99.90;;;;;;5058419;28;20056;-59
2022/01/31 08:05:05;;;;;;;7.82;2.10;;;6.10;99.90;;;;;;5057442;28;20048;-58
2022/01/31 08:07:33;;;;;;;5.20;1.65;;;6.10;99.90;;;;;;5057979;28;20102;-58
2022/01/31 08:10:01;;;;;;;8.73;2.20;;;6.10;99.90;;;;;;5058731;28;20488;-58
2022/01/31 08:12:29;;;;;;;5.18;1.70;;;6.10;99.90;;;;;;5062099;28;20068;-58
2022/01/31 08:15:02;;;;;;;5.32;1.85;;;6.00;99.90;;;;;;5060687;28;20457;-58
2022/01/31 08:17:29;;;;;;;;;;;6.00;99.90;;;;;;5062306;28;20607;-58
2022/01/31 08:19:56;;;;;;;7.57;2.88;;;6.00;99.90;;;;;;5061827;28;19971;-58
2022/01/31 08:22:23;;;;;;;8.13;2.35;;;6.00;99.90;;;;;;5062438;28;20430;-58
2022/01/31 08:24:49;;;;;;;8.52;2.25;;;6.00;99.90;;;;;;5061836;28;20098;-58
2022/01/31 08:27:16;;;;;;;3.85;1.20;;;5.90;99.90;;;;;;5060435;28;20140;-58
2022/01/31 08:29:43;;;;;;;4.20;1.58;;;6.00;99.90;;;;;;5060515;28;20123;-58
2022/01/31 08:32:18;;;;;;;7.53;2.47;;;6.00;99.90;;;;;;5061095;28;20079;-58
2022/01/31 08:37:36;;;;;;;7.45;1.75;;;6.00;99.90;;;;;;5061631;28;20098;-58
2022/01/31 08:40:03;;;;;;;4.97;1.52;;;6.00;99.90;;;;;;5060046;28;20490;-58
2022/01/31 08:42:30;;;;;;;7.28;1.80;;;6.10;99.90;;;;;;5061792;28;20207;-60
2022/01/31 08:44:56;;;;;;;7.78;1.98;;;6.10;99.90;;;;;;5060416;28;20164;-58
2022/01/31 08:47:23;;;;;;;8.07;1.90;;;6.10;99.90;;;;;;5060437;28;20127;-58
2022/01/31 08:49:50;;;;;;;7.53;1.90;;;6.20;99.90;;;;;;5061907;28;20053;-58
2022/01/31 08:52:17;;;;;;;9.50;2.20;;;6.20;99.90;;;;;;5060814;28;20087;-58
2022/01/31 08:54:44;;;;;;;6.43;2.25;;;6.20;99.90;;;;;;5061166;28;20163;-58
2022/01/31 08:57:11;;;;;;;8.73;1.92;;;6.30;99.90;;;;;;5061477;28;20147;-58
2022/01/31 08:59:43;;;;;;;12.45;2.45;;;6.30;99.90;;;;;;5054465;28;20044;-59
2022/01/31 09:02:16;;;;;;;7.55;2.47;;;6.40;99.90;;;;;;5059619;28;20080;-59
2022/01/31 09:04:49;;;;;;;5.60;1.90;;;6.50;99.90;;;;;;5057840;28;20098;-59
2022/01/31 09:07:20;;;;;;;7.03;1.83;;;6.50;99.90;;;;;;5060167;28;20044;-59
2022/01/31 09:09:53;;;;;;;4.97;1.83;;;6.50;99.90;;;;;;5059318;28;20107;-59
2022/01/31 09:12:21;;;;;;;5.35;1.80;;;6.50;99.90;;;;;;5057189;28;20049;-59
2022/01/31 09:14:48;;;;;;;5.22;1.67;;;6.50;99.90;;;;;;5058225;28;20049;-59
2022/01/31 09:17:14;;;;;;;9.82;2.38;;;6.60;99.90;;;;;;5058777;28;20120;-59
2022/01/31 09:19:41;;;;;;;6.93;1.90;;;6.60;99.90;;;;;;5058121;28;20482;-59
2022/01/31 09:22:08;;;;;;;9.40;2.00;;;6.60;99.90;;;;;;5056072;28;20628;-58
2022/01/31 09:24:38;;;;;;;7.28;1.80;;;6.70;99.90;;;;;;5058761;28;20072;-59
2022/01/31 09:27:08;;;;;;;8.13;1.70;;;6.70;99.90;;;;;;5059618;28;20139;-59
2022/01/31 09:29:35;;;;;;;11.50;3.03;;;6.70;99.90;;;;;;5058536;28;20340;-59
2022/01/31 09:32:05;;;;;;;5.97;1.90;;;6.80;99.90;;;;;;5060663;28;20494;-59
2022/01/31 09:34:32;;;;;;;8.18;1.75;;;6.80;99.90;;;;;;5060245;28;20201;-59
2022/01/31 09:36:59;;;;;;;6.13;1.40;;;6.80;99.90;;;;;;5060994;28;20630;-59
2022/01/31 09:39:26;;;;;;;6.53;1.33;;;6.90;99.90;;;;;;5059871;28;20109;-59
2022/01/31 09:41:56;;;;;;;4.70;1.70;;;6.90;99.90;;;;;;5060343;28;20084;-59
2022/01/31 09:48:31;;;;;;;7.60;2.08;;;7.00;99.90;;;;;;5051235;28;20655;-59
2022/01/31 09:50:08;;;;;;;8.25;2.08;;;7.10;99.90;;;;;;5051083;28;20467;-59
2022/01/31 09:52:35;;;;;;;5.13;1.67;;;7.10;99.90;;;;;;5042894;28;20048;-58
2022/01/31 09:55:02;;;;;;;6.95;1.40;;;7.10;99.90;;;;;;5059435;28;20131;-59
2022/01/31 09:57:28;;;;;;;7.97;2.08;;;7.20;99.90;;;;;;5060376;28;20168;-59
2022/01/31 09:59:55;;;;;;;7.72;1.80;;;7.20;99.90;;;;;;5058993;28;20127;-59
2022/01/31 10:02:22;;;;;;;7.68;1.67;;;7.20;99.90;;;;;;5059688;28;20409;-59
2022/01/31 10:04:49;;;;;;;6.85;1.90;;;7.20;99.90;;;;;;5059128;28;20551;-59
2022/01/31 10:07:16;;;;;;;6.32;1.70;;;7.20;99.90;;;;;;5060307;28;20060;-59
2022/01/31 10:09:46;;;;;;;5.57;1.92;;;7.20;99.90;;;;;;5059478;28;20175;-59
2022/01/31 10:12:25;;;;;;;8.20;1.45;;;7.20;99.90;;;;;;5060016;28;20111;-59
2022/01/31 10:17:42;;;;;;;5.40;2.00;;;7.30;99.90;;;;;;5067400;28;20101;-59
2022/01/31 10:20:28;;;;;;;3.78;1.58;;;7.30;99.90;;;;;;5068198;28;20125;-59
2022/01/31 10:23:05;;;;;;;6.40;2.20;;;7.30;99.90;;;;;;5066563;28;20044;-58
2022/01/31 10:25:32;;;;;;;6.15;2.10;;;7.40;99.90;;;;;;5062224;28;20100;-58
2022/01/31 10:28:19;;;;;;;6.53;1.80;;;7.50;99.90;;;;;;5063573;28;20326;-59
2022/01/31 10:30:47;;;;;;;7.60;1.85;;;7.50;99.90;;;;;;5062839;28;20048;-59
2022/01/31 10:33:14;;;;;;;8.90;2.05;;;7.60;99.90;;;;;;5073480;28;20485;-58
2022/01/31 10:35:42;;;;;;;8.10;2.40;;;7.60;99.90;;;;;;5068332;28;20056;-59
2022/01/31 10:38:15;;;;;;;5.95;1.83;;;7.60;99.90;;;;;;5064224;28;20082;-59
2022/01/31 10:57:02;;;;;;;4.78;1.58;;;7.70;99.90;;;;;;5072440;28;20066;-58
2022/01/31 10:59:37;;;;;;;4.10;1.30;;;7.70;99.70;;;;;;5064388;28;20361;-58
2022/01/31 11:02:15;;;;;;;5.47;1.60;;;7.80;99.50;;;;;;5071039;28;20174;-58
2022/01/31 11:04:42;;;;;;;7.53;1.90;;;7.80;99.40;;;;;;5062284;28;20048;-58
2022/01/31 11:07:17;;;;;;;5.10;1.65;;;7.90;98.70;;;;;;5069012;28;20048;-58
2022/01/31 11:09:49;;;;;;;6.85;1.90;;;7.90;99.20;;;;;;5065413;28;20439;-58
2022/01/31 11:12:16;;;;;;;5.93;1.42;;;7.90;96.70;;;;;;5067966;28;20056;-58
2022/01/31 11:14:45;;;;;;;5.70;1.40;;;7.90;97.30;;;;;;5057357;28;20133;-59
2022/01/31 11:17:13;;;;;;;5.05;1.40;;;7.90;95.70;;;;;;5068649;28;20122;-58
2022/01/31 11:19:48;;;;;;;9.48;2.35;;;7.90;94.90;;;;;;5064685;28;20147;-58
2022/01/31 11:22:18;;;;;;;5.35;1.40;;;7.90;95.00;;;;;;5066691;28;20398;-59
2022/01/31 11:25:05;;;;;;;2.88;1.15;;;8.00;93.40;;;;;;5069365;28;20086;-58
2022/01/31 11:27:32;;;;;;;4.97;1.60;;;8.00;94.00;;;;;;5066985;28;20170;-58
2022/01/31 11:30:06;;;;;;;3.55;1.52;;;8.00;93.40;;;;;;5055276;28;20162;-57
2022/01/31 11:32:33;;;;;;;3.97;1.10;;;8.00;94.60;;;;;;5056239;28;20401;-58
2022/01/31 11:35:00;;;;;;;3.40;1.15;;;8.10;94.60;;;;;;5060880;28;20056;-56
2022/01/31 11:37:27;;;;;;;4.60;1.25;;;8.10;93.20;;;;;;5041347;28;20048;-58
2022/01/31 11:40:02;;;;;;;3.65;1.38;;;8.20;93.10;;;;;;5062167;28;20051;-58
2022/01/31 11:42:29;;;;;;;6.30;1.25;;;8.30;94.10;;;;;;5071914;28;20056;-58
2022/01/31 11:45:08;;;;;;;6.22;1.20;;;8.40;93.60;;;;;;5040022;28;20060;-58
2022/01/31 11:47:36;;;;;;;4.57;1.30;;;8.40;93.20;;;;;;5060251;28;20110;-58
2022/01/31 11:50:07;;;;;;;4.63;1.45;;;8.30;93.20;;;;;;5056531;28;20129;-57
2022/01/31 11:52:42;;;;;;;5.70;1.60;;;8.20;93.60;;;;;;5058156;28;20148;-58
2022/01/31 11:55:12;;;;;;;4.60;1.40;;;8.20;94.80;;;;;;5058291;28;20056;-58
2022/01/31 11:57:40;;;;;;;4.70;1.50;;;8.10;95.60;;;;;;5058378;28;20435;-58
2022/01/31 12:00:09;;;;;;;3.38;1.35;;;8.20;96.40;;;;;;5038306;28;20569;-58
2022/01/31 12:02:49;;;;;;;4.28;1.55;;;8.30;95.00;;;;;;5057933;28;20083;-59
2022/01/31 12:05:28;;;;;;;5.88;1.45;;;8.30;95.80;;;;;;5057595;28;20056;-59
2022/01/31 12:08:11;;;;;;;2.97;1.35;;;8.40;95.40;;;;;;5058056;28;20106;-59
2022/01/31 12:10:42;;;;;;;6.57;1.90;;;8.60;95.10;;;;;;5057243;28;20088;-59
2022/01/31 12:13:46;;;;;;;6.25;1.85;;;8.70;94.30;;;;;;5056465;28;20059;-59
2022/01/31 12:17:10;;;;;;;4.68;1.67;;;8.60;94.10;;;;;;5056520;28;20049;-59
2022/01/31 12:19:48;;;;;;;5.18;1.60;;;8.80;94.00;;;;;;5061676;28;20514;-57
2022/01/31 12:22:45;;;;;;;4.32;2.13;;;8.90;93.40;;;;;;5068501;28;20048;-57
2022/01/31 12:25:22;;;;;;;6.13;1.80;;;8.80;92.70;;;;;;5056550;28;20623;-58
2022/01/31 12:27:49;;;;;;;4.80;1.80;;;8.70;92.90;;;;;;5061667;28;20088;-59
2022/01/31 12:30:33;;;;;;;4.45;1.73;;;8.50;94.10;;;;;;5062552;28;20083;-58
2022/01/31 12:33:00;;;;;;;3.60;1.50;;;8.40;94.50;;;;;;5059225;28;20047;-58
2022/01/31 12:35:37;;;;;;;8.23;1.80;;;8.40;94.60;;;;;;5063676;28;20530;-59
2022/01/31 12:38:05;;;;;;;4.35;1.48;;;8.60;94.70;;;;;;5057881;28;20092;-58
2022/01/31 12:40:41;;;;;;;7.97;1.85;;;8.70;93.30;;;;;;5060372;28;20098;-58
2022/01/31 12:43:13;;;;;;;3.83;1.60;;;8.90;92.90;;;;;;5060198;28;20405;-59
2022/01/31 12:45:40;;;;;;;6.30;2.03;;;9.10;93.10;;;;;;5057440;28;20144;-59
2022/01/31 12:48:17;;;;;;;9.40;1.40;;;9.30;92.60;;;;;;5069267;28;20063;-59
2022/01/31 12:50:53;;;;;;;4.55;1.63;;;9.30;89.60;;;;;;5066498;28;20511;-59
2022/01/31 12:53:23;;;;;;;3.55;1.50;;;9.10;91.10;;;;;;5064703;28;20066;-59
2022/01/31 12:55:58;;;;;;;3.58;1.52;;;9.30;91.80;;;;;;5067825;28;20519;-58
2022/01/31 12:58:32;;;;;;;3.90;1.42;;;9.40;90.60;;;;;;5069527;28;20083;-56
2022/01/31 13:01:13;;;;;;;5.93;1.70;;;9.70;90.50;;;;;;5070808;28;20035;-58
2022/01/31 13:03:42;;;;;;;3.00;1.83;;;9.70;90.10;;;;;;5066971;28;20075;-59
2022/01/31 13:06:38;;;;;;;4.82;1.33;;;9.90;86.00;;;;;;5070839;28;20065;-58
2022/01/31 13:09:06;;;;;;;3.20;1.60;;;9.80;84.50;;;;;;5064341;28;20136;-59
2022/01/31 13:11:33;;;;;;;5.43;1.52;;;10.10;86.50;;;;;;5060848;28;20059;-59
2022/01/31 13:14:24;;;;;;;4.13;1.30;;;10.30;81.30;;;;;;5062610;28;20135;-59
2022/01/31 13:17:15;;;;;;;3.30;1.40;;;9.90;79.30;;;;;;5079883;28;20040;-59
2022/01/31 13:19:48;;;;;;;4.05;1.70;;;10.00;77.70;;;;;;5072652;28;20049;-59
2022/01/31 13:22:41;;;;;;;3.05;1.10;;;10.10;76.80;;;;;;5067927;28;20056;-58
2022/01/31 13:25:12;;;;;;;4.53;1.35;;;10.30;73.50;;;;;;5072698;28;20104;-58
2022/01/31 13:27:59;;;;;;;5.22;1.45;;;10.30;71.50;;;;;;5074006;28;20538;-58
2022/01/31 13:30:27;;;;;;;4.57;1.40;;;10.20;68.70;;;;;;5059389;28;20113;-58
2022/01/31 13:32:54;;;;;;;4.85;1.40;;;10.10;66.60;;;;;;5077143;28;20071;-58
2022/01/31 13:35:26;;;;;;;4.00;1.73;;;10.20;62.50;;;;;;5065500;28;20044;-58
2022/01/31 13:37:58;;;;;;;3.05;1.23;;;10.10;63.50;;;;;;5068034;28;20218;-58